Time;durP1;ratioP1;P1;durP2;ratioP2;P2;SDS_P1;SDS_P2;PMS_P1;PMS_P2;Temp;Humidity;BMP_temperature;BMP_pressure;BME280_temperature;BME280_humidity;BME280_pressure;Samples;Min_cycle;Max_cycle;Signal;HPM_P1;HPM_P2
2023/03/17 00:00:32;;;;;;;4.80;2.00;;;3.70;87.70;;;;;;2083400;28;20210;-63
2023/03/17 00:01:38;;;;;;;2.63;1.92;;;3.70;88.30;;;;;;2083335;28;20225;-63
2023/03/17 00:02:46;;;;;;;2.53;1.77;;;3.70;89.60;;;;;;2083603;28;20192;-63
2023/03/17 00:03:51;;;;;;;3.90;2.10;;;3.70;88.70;;;;;;2082983;28;20191;-63
2023/03/17 00:04:57;;;;;;;2.83;1.95;;;3.60;89.30;;;;;;2083140;28;20576;-61
2023/03/17 00:06:04;;;;;;;2.90;2.20;;;3.60;90.00;;;;;;2083749;28;20231;-63
2023/03/17 00:07:14;;;;;;;3.15;2.00;;;3.60;89.30;;;;;;2087081;28;20328;-61
2023/03/17 00:08:27;;;;;;;2.95;1.80;;;3.60;89.40;;;;;;2091096;28;20209;-63
2023/03/17 00:09:33;;;;;;;3.08;2.22;;;3.50;89.70;;;;;;2088887;28;20214;-62
2023/03/17 00:10:38;;;;;;;2.58;1.92;;;3.50;90.60;;;;;;2083405;28;20390;-61
2023/03/17 00:11:45;;;;;;;2.45;1.77;;;3.40;90.60;;;;;;2083405;28;20190;-63
2023/03/17 00:12:53;;;;;;;3.30;2.35;;;3.40;90.70;;;;;;2083441;28;20199;-63
2023/03/17 00:14:00;;;;;;;2.65;2.05;;;3.40;90.70;;;;;;2083538;28;20734;-62
2023/03/17 00:15:04;;;;;;;2.80;2.00;;;3.30;90.90;;;;;;2083240;28;20192;-63
2023/03/17 00:16:20;;;;;;;2.55;1.70;;;3.30;91.20;;;;;;2087134;28;20998;-61
2023/03/17 00:17:26;;;;;;;5.82;2.28;;;3.20;91.40;;;;;;2091286;28;20230;-63
2023/03/17 00:18:34;;;;;;;10.73;2.42;;;3.20;91.20;;;;;;2091172;28;20200;-62
2023/03/17 00:19:41;;;;;;;4.43;2.30;;;3.10;91.20;;;;;;2091816;28;20211;-62
2023/03/17 00:20:47;;;;;;;5.00;2.50;;;3.10;91.10;;;;;;2091700;28;20700;-61
2023/03/17 00:21:53;;;;;;;3.22;2.10;;;3.10;91.50;;;;;;2091533;28;20215;-62
2023/03/17 00:23:03;;;;;;;4.10;2.25;;;3.00;91.60;;;;;;2082972;28;20183;-62
2023/03/17 00:24:10;;;;;;;3.03;2.15;;;3.00;91.80;;;;;;2076681;28;20199;-62
2023/03/17 00:25:24;;;;;;;3.33;2.20;;;3.00;92.00;;;;;;2076460;28;20204;-62
2023/03/17 00:26:30;;;;;;;5.38;2.53;;;2.90;92.40;;;;;;2085435;28;20225;-62
2023/03/17 00:27:35;;;;;;;3.92;2.20;;;2.90;92.80;;;;;;2088934;28;20732;-61
2023/03/17 00:28:41;;;;;;;2.80;1.80;;;2.70;93.00;;;;;;2086288;28;20198;-62
2023/03/17 00:29:47;;;;;;;3.33;2.15;;;2.80;93.20;;;;;;2086100;28;20182;-62
2023/03/17 00:30:58;;;;;;;4.85;2.42;;;2.80;93.00;;;;;;2086384;28;20230;-62
2023/03/17 00:32:04;;;;;;;2.80;2.30;;;2.80;93.00;;;;;;2086032;28;20271;-62
2023/03/17 00:33:10;;;;;;;3.50;2.00;;;2.80;93.00;;;;;;2086090;28;20194;-62
2023/03/17 00:34:18;;;;;;;3.80;2.55;;;2.80;93.10;;;;;;2086224;28;20551;-62
2023/03/17 00:35:28;;;;;;;4.22;2.35;;;2.80;93.30;;;;;;2077192;28;20738;-62
2023/03/17 00:36:34;;;;;;;2.63;2.08;;;2.80;93.60;;;;;;2079439;28;20699;-63
2023/03/17 00:37:40;;;;;;;3.78;1.92;;;2.80;93.90;;;;;;2086015;28;20270;-63
2023/03/17 00:38:46;;;;;;;3.22;2.10;;;2.80;93.60;;;;;;2086235;28;20192;-62
2023/03/17 00:39:51;;;;;;;2.97;2.08;;;2.70;93.70;;;;;;2085987;28;20663;-63
2023/03/17 00:40:57;;;;;;;3.80;1.90;;;2.80;94.10;;;;;;2086205;28;20214;-63
2023/03/17 00:42:03;;;;;;;4.43;2.00;;;2.80;94.20;;;;;;2085667;28;20203;-63
2023/03/17 00:43:09;;;;;;;6.32;2.63;;;2.80;93.80;;;;;;2085974;28;20573;-64
2023/03/17 00:44:15;;;;;;;3.60;1.83;;;2.80;93.80;;;;;;2077143;28;20205;-63
2023/03/17 00:45:22;;;;;;;1.85;1.63;;;2.80;93.80;;;;;;2078616;28;20188;-63
2023/03/17 00:46:34;;;;;;;5.32;2.03;;;2.80;94.20;;;;;;2086076;28;20277;-63
2023/03/17 00:47:40;;;;;;;2.42;1.65;;;2.90;94.10;;;;;;2086100;28;20184;-63
2023/03/17 00:48:47;;;;;;;3.17;1.90;;;2.80;94.10;;;;;;2086111;28;20194;-63
2023/03/17 00:49:53;;;;;;;3.55;1.85;;;2.70;94.30;;;;;;2085963;28;20192;-63
2023/03/17 00:50:58;;;;;;;2.88;2.00;;;2.80;94.40;;;;;;2085954;28;20637;-63
2023/03/17 00:52:04;;;;;;;3.40;2.05;;;2.80;94.50;;;;;;2085548;28;20219;-63
2023/03/17 00:53:15;;;;;;;3.17;2.03;;;2.80;94.40;;;;;;2086033;28;20186;-62
2023/03/17 00:54:21;;;;;;;3.78;1.90;;;2.70;95.60;;;;;;2085888;28;20197;-63
2023/03/17 00:55:27;;;;;;;1.85;1.55;;;2.60;96.00;;;;;;2085962;28;20203;-63
2023/03/17 00:56:33;;;;;;;3.95;2.25;;;2.60;96.00;;;;;;2085747;28;20405;-63
2023/03/17 00:57:39;;;;;;;2.78;2.00;;;2.50;95.50;;;;;;2086009;28;20185;-64
2023/03/17 00:58:46;;;;;;;2.85;1.98;;;2.60;95.40;;;;;;2085170;28;20191;-63
2023/03/17 00:59:52;;;;;;;4.57;2.15;;;2.60;95.20;;;;;;2077174;28;20212;-63
2023/03/17 01:00:59;;;;;;;2.85;2.03;;;2.50;95.10;;;;;;2078484;28;20351;-63
2023/03/17 01:02:04;;;;;;;3.20;2.10;;;2.60;95.10;;;;;;2085800;28;20215;-64
2023/03/17 01:03:12;;;;;;;2.83;2.03;;;2.60;94.80;;;;;;2085864;28;20269;-62
2023/03/17 01:04:18;;;;;;;3.63;2.28;;;2.60;95.00;;;;;;2085795;28;20237;-63
2023/03/17 01:05:25;;;;;;;2.47;1.98;;;2.60;95.30;;;;;;2087031;28;20258;-62
2023/03/17 01:06:30;;;;;;;3.33;2.00;;;2.60;94.80;;;;;;2085791;28;20257;-63
2023/03/17 01:07:37;;;;;;;3.13;2.13;;;2.60;94.60;;;;;;2085354;28;20202;-63
2023/03/17 01:08:43;;;;;;;2.42;1.77;;;2.70;94.60;;;;;;2085368;28;20207;-63
2023/03/17 01:09:49;;;;;;;3.78;2.42;;;2.70;94.70;;;;;;2085244;28;20190;-63
2023/03/17 01:10:56;;;;;;;3.90;2.30;;;2.70;94.70;;;;;;2085192;28;20179;-63
2023/03/17 01:12:02;;;;;;;4.38;2.85;;;2.70;94.50;;;;;;2085752;28;20215;-63
2023/03/17 01:13:05;;;;;;;2.70;1.80;;;2.70;94.60;;;;;;2085639;28;20554;-64
2023/03/17 01:14:10;;;;;;;2.50;1.83;;;2.70;94.60;;;;;;2085695;28;20633;-63
2023/03/17 01:15:18;;;;;;;3.85;2.20;;;2.70;94.70;;;;;;2085574;28;20222;-63
2023/03/17 01:16:24;;;;;;;3.05;2.05;;;2.70;94.70;;;;;;2086061;28;20214;-62
2023/03/17 01:17:30;;;;;;;3.28;2.05;;;2.70;94.80;;;;;;2085641;28;20196;-63
2023/03/17 01:18:36;;;;;;;3.20;2.10;;;2.70;95.00;;;;;;2085933;28;20300;-63
2023/03/17 01:19:42;;;;;;;4.25;2.38;;;2.70;94.90;;;;;;2085656;28;20208;-63
2023/03/17 01:20:48;;;;;;;5.30;3.22;;;2.70;94.90;;;;;;2085878;28;20214;-64
2023/03/17 01:21:54;;;;;;;2.75;1.80;;;2.70;95.70;;;;;;2085253;28;20205;-63
2023/03/17 01:23:01;;;;;;;2.65;2.00;;;2.60;96.00;;;;;;2085775;28;20197;-64
2023/03/17 01:24:04;;;;;;;3.58;2.30;;;2.50;96.40;;;;;;2085830;28;20251;-63
2023/03/17 01:25:10;;;;;;;2.60;2.00;;;2.40;96.70;;;;;;2085647;28;20202;-62
2023/03/17 01:26:16;;;;;;;3.10;1.98;;;2.40;96.60;;;;;;2085707;28;20188;-63
2023/03/17 01:27:23;;;;;;;4.30;1.83;;;2.40;96.50;;;;;;2085596;28;20208;-63
2023/03/17 01:28:29;;;;;;;2.50;2.08;;;2.40;96.30;;;;;;2085733;28;20191;-63
2023/03/17 01:29:35;;;;;;;3.22;2.05;;;2.40;96.30;;;;;;2085665;28;20183;-62
2023/03/17 01:30:41;;;;;;;3.53;2.10;;;2.40;96.50;;;;;;2085787;28;20207;-63
2023/03/17 01:31:47;;;;;;;2.55;2.05;;;2.50;96.70;;;;;;2080115;28;20192;-62
2023/03/17 01:32:54;;;;;;;5.65;2.33;;;2.40;96.80;;;;;;2077886;28;20235;-62
2023/03/17 01:34:00;;;;;;;3.28;1.88;;;2.40;97.00;;;;;;2085576;28;20224;-63
2023/03/17 01:35:05;;;;;;;2.45;1.83;;;2.30;96.90;;;;;;2085574;28;20270;-64
2023/03/17 01:36:09;;;;;;;2.67;2.00;;;2.40;96.80;;;;;;2085609;28;20291;-62
2023/03/17 01:37:15;;;;;;;1.80;1.50;;;2.40;96.90;;;;;;2086003;28;20192;-63
2023/03/17 01:38:21;;;;;;;3.67;2.13;;;2.40;96.50;;;;;;2085544;28;20184;-63
2023/03/17 01:39:27;;;;;;;3.58;2.10;;;2.40;96.90;;;;;;2084835;28;20195;-63
2023/03/17 01:40:37;;;;;;;7.03;1.95;;;2.30;97.40;;;;;;2085322;28;20218;-62
2023/03/17 01:41:44;;;;;;;3.53;1.77;;;2.20;97.90;;;;;;2085192;28;20235;-63
2023/03/17 01:43:07;;;;;;;4.32;1.77;;;2.20;98.60;;;;;;2085561;28;20192;-63
2023/03/17 01:44:17;;;;;;;3.85;1.83;;;2.30;98.10;;;;;;2085400;28;20185;-64
2023/03/17 01:46:15;;;;;;;2.92;1.98;;;2.30;97.70;;;;;;2085667;28;20190;-63
2023/03/17 01:47:24;;;;;;;2.60;1.63;;;2.30;97.50;;;;;;2086056;28;20707;-63
2023/03/17 01:48:37;;;;;;;2.13;1.60;;;2.20;97.60;;;;;;2084765;28;20194;-63
2023/03/17 01:49:44;;;;;;;2.00;1.48;;;2.30;97.80;;;;;;2076856;28;20213;-63
2023/03/17 01:50:51;;;;;;;2.17;1.88;;;2.30;97.40;;;;;;2078197;28;20240;-63
2023/03/17 01:52:14;;;;;;;4.20;1.48;;;2.20;97.30;;;;;;2084549;28;20787;-64
2023/03/17 01:53:21;;;;;;;1.83;1.25;;;2.20;97.50;;;;;;2076621;28;20714;-63
2023/03/17 01:54:47;;;;;;;2.00;1.58;;;2.20;97.00;;;;;;2078141;28;20226;-62
2023/03/17 01:55:55;;;;;;;3.10;2.03;;;2.20;96.70;;;;;;2088805;28;20580;-62
2023/03/17 01:57:27;;;;;;;2.58;1.40;;;2.20;97.40;;;;;;2085408;28;20416;-63
2023/03/17 01:58:33;;;;;;;2.45;1.85;;;2.00;98.30;;;;;;2080661;28;20200;-62
2023/03/17 01:59:46;;;;;;;3.03;1.52;;;1.90;98.60;;;;;;2082256;28;20866;-62
2023/03/17 02:00:51;;;;;;;2.45;1.60;;;1.80;99.10;;;;;;2076470;28;20239;-64
2023/03/17 02:02:04;;;;;;;2.30;1.48;;;1.90;98.80;;;;;;2077806;28;20202;-62
2023/03/17 02:03:10;;;;;;;2.63;1.67;;;1.90;98.50;;;;;;2084674;28;20190;-63
2023/03/17 02:04:18;;;;;;;2.75;1.67;;;2.00;98.00;;;;;;2085026;28;20225;-63
2023/03/17 02:05:28;;;;;;;4.28;1.90;;;2.00;97.50;;;;;;2081691;28;20194;-62
2023/03/17 02:06:34;;;;;;;2.55;1.75;;;2.00;97.40;;;;;;2087020;28;20194;-63
2023/03/17 02:07:40;;;;;;;3.00;1.80;;;2.00;97.70;;;;;;2076492;28;20202;-62
2023/03/17 02:08:46;;;;;;;2.47;1.65;;;2.00;98.00;;;;;;2078120;28;20213;-63
2023/03/17 02:09:54;;;;;;;1.77;1.40;;;2.00;98.20;;;;;;2085254;28;20191;-63
2023/03/17 02:11:02;;;;;;;4.63;1.90;;;1.90;98.40;;;;;;2085345;28;20254;-62
2023/03/17 02:12:07;;;;;;;3.35;1.85;;;1.90;98.70;;;;;;2085064;28;20213;-63
2023/03/17 02:13:11;;;;;;;3.60;1.85;;;1.90;98.70;;;;;;2085150;28;20227;-63
2023/03/17 02:14:17;;;;;;;1.70;1.60;;;1.90;99.20;;;;;;2085365;28;20198;-63
2023/03/17 02:15:45;;;;;;;2.85;1.65;;;1.80;99.40;;;;;;2085150;28;20186;-61
2023/03/17 02:16:50;;;;;;;5.32;1.80;;;1.80;99.70;;;;;;2085397;28;20193;-63
2023/03/17 02:17:56;;;;;;;2.50;1.30;;;1.80;99.70;;;;;;2085218;28;20235;-63
2023/03/17 02:19:02;;;;;;;3.58;1.50;;;1.90;99.70;;;;;;2085383;28;20190;-63
2023/03/17 02:20:16;;;;;;;3.05;1.95;;;1.90;99.40;;;;;;2085150;28;20196;-63
2023/03/17 02:21:45;;;;;;;3.55;1.75;;;1.90;99.80;;;;;;2088341;28;20200;-62
2023/03/17 02:22:54;;;;;;;3.13;1.65;;;2.00;99.70;;;;;;2077510;28;20177;-63
2023/03/17 02:24:16;;;;;;;5.43;1.70;;;2.00;99.10;;;;;;2082772;28;20240;-62
2023/03/17 02:25:25;;;;;;;4.15;1.98;;;2.10;98.40;;;;;;2076498;28;20679;-63
2023/03/17 02:26:34;;;;;;;3.60;1.80;;;2.10;97.60;;;;;;2070222;28;20207;-63
2023/03/17 02:27:51;;;;;;;3.88;2.17;;;2.00;97.80;;;;;;2078417;28;20194;-62
2023/03/17 02:28:57;;;;;;;5.25;2.30;;;2.00;98.00;;;;;;2087120;28;20278;-63
2023/03/17 02:30:05;;;;;;;4.88;2.28;;;1.90;98.30;;;;;;2084599;28;20193;-63
2023/03/17 02:31:09;;;;;;;3.70;2.05;;;1.90;98.50;;;;;;2085180;28;20245;-63
2023/03/17 02:32:18;;;;;;;5.65;2.30;;;1.90;98.70;;;;;;2084275;28;20219;-63
2023/03/17 02:33:24;;;;;;;4.32;2.20;;;2.00;98.80;;;;;;2084655;28;20550;-63
2023/03/17 02:34:30;;;;;;;5.10;2.50;;;2.00;98.50;;;;;;2085062;28;20283;-63
2023/03/17 02:35:37;;;;;;;4.22;2.38;;;2.10;98.20;;;;;;2084671;28;20695;-62
2023/03/17 02:36:43;;;;;;;7.07;2.70;;;2.10;98.30;;;;;;2080469;28;20219;-62
2023/03/17 02:37:49;;;;;;;2.95;1.90;;;2.10;98.30;;;;;;2085392;28;20179;-61
2023/03/17 02:38:56;;;;;;;7.10;2.42;;;2.10;98.50;;;;;;2085073;28;20183;-62
2023/03/17 02:40:04;;;;;;;3.10;1.90;;;2.20;98.80;;;;;;2085187;28;20189;-61
2023/03/17 02:41:09;;;;;;;2.53;1.80;;;2.10;98.90;;;;;;2076271;28;20235;-65
2023/03/17 02:42:15;;;;;;;4.82;1.90;;;2.10;98.60;;;;;;2077597;28;20776;-61
2023/03/17 02:43:21;;;;;;;3.45;1.83;;;2.00;98.60;;;;;;2085130;28;20681;-63
2023/03/17 02:44:27;;;;;;;2.97;1.85;;;2.10;98.10;;;;;;2085183;28;20669;-62
2023/03/17 02:45:32;;;;;;;4.40;1.75;;;2.20;98.30;;;;;;2085185;28;20215;-62
2023/03/17 02:46:38;;;;;;;4.60;1.98;;;2.20;97.70;;;;;;2085226;28;20193;-62
2023/03/17 02:47:44;;;;;;;2.55;1.35;;;2.30;97.80;;;;;;2085137;28;20270;-61
2023/03/17 02:48:50;;;;;;;2.05;1.52;;;2.30;97.60;;;;;;2085144;28;20190;-62
2023/03/17 02:49:56;;;;;;;4.28;1.80;;;2.40;97.20;;;;;;2085198;28;20832;-62
2023/03/17 02:51:03;;;;;;;3.03;1.52;;;2.50;97.40;;;;;;2084223;28;20227;-62
2023/03/17 02:52:06;;;;;;;5.35;1.73;;;2.50;97.30;;;;;;2084145;28;20234;-62
2023/03/17 02:53:09;;;;;;;2.92;1.60;;;2.50;97.10;;;;;;2084910;28;20190;-63
2023/03/17 02:54:15;;;;;;;1.70;1.50;;;2.50;96.90;;;;;;2084970;28;20199;-62
2023/03/17 02:55:21;;;;;;;2.92;1.42;;;2.50;96.90;;;;;;2084310;28;20199;-62
2023/03/17 02:56:27;;;;;;;2.42;1.63;;;2.50;97.10;;;;;;2084405;28;20206;-62
2023/03/17 02:57:33;;;;;;;1.83;1.50;;;2.50;97.00;;;;;;2084896;28;20557;-62
2023/03/17 02:58:38;;;;;;;3.00;1.60;;;2.40;97.50;;;;;;2085093;28;20203;-62
2023/03/17 02:59:44;;;;;;;3.58;2.22;;;2.40;97.70;;;;;;2085002;28;20180;-62
2023/03/17 03:00:50;;;;;;;5.65;2.13;;;2.40;97.50;;;;;;2084900;28;20916;-63
2023/03/17 03:01:56;;;;;;;2.85;1.98;;;2.40;97.10;;;;;;2084634;28;20234;-62
2023/03/17 03:03:02;;;;;;;3.40;2.67;;;2.40;96.80;;;;;;2085021;28;20672;-63
2023/03/17 03:04:05;;;;;;;2.28;1.52;;;2.40;96.70;;;;;;2085042;28;20303;-63
2023/03/17 03:05:09;;;;;;;2.38;1.70;;;2.40;96.70;;;;;;2084286;28;20194;-62
2023/03/17 03:06:15;;;;;;;2.33;1.50;;;2.40;96.70;;;;;;2084582;28;20221;-63
2023/03/17 03:07:21;;;;;;;3.05;1.52;;;2.50;96.70;;;;;;2084880;28;20853;-62
2023/03/17 03:08:27;;;;;;;3.67;1.40;;;2.40;96.80;;;;;;2084937;28;20196;-63
2023/03/17 03:09:33;;;;;;;3.47;1.70;;;2.40;96.90;;;;;;2084899;28;20200;-63
2023/03/17 03:10:39;;;;;;;2.33;1.50;;;2.40;97.00;;;;;;2088723;28;20190;-63
2023/03/17 03:11:45;;;;;;;2.63;1.70;;;2.40;97.00;;;;;;2079232;28;20221;-62
2023/03/17 03:12:51;;;;;;;4.43;1.40;;;2.40;97.00;;;;;;2077025;28;20194;-63
2023/03/17 03:13:56;;;;;;;2.00;1.33;;;2.30;97.20;;;;;;2084801;28;20202;-63
2023/03/17 03:15:02;;;;;;;3.05;1.67;;;2.30;97.50;;;;;;2084867;28;20200;-63
2023/03/17 03:16:04;;;;;;;2.45;1.73;;;2.30;97.40;;;;;;2084562;28;20215;-63
2023/03/17 03:17:09;;;;;;;3.47;1.63;;;2.30;97.40;;;;;;2085009;28;20195;-61
2023/03/17 03:18:15;;;;;;;2.05;1.42;;;2.20;97.60;;;;;;2085733;28;20202;-61
2023/03/17 03:19:21;;;;;;;1.88;1.40;;;2.20;98.10;;;;;;2084903;28;20214;-62
2023/03/17 03:20:27;;;;;;;3.55;1.77;;;2.20;98.10;;;;;;2084882;28;20187;-62
2023/03/17 03:21:33;;;;;;;3.85;1.50;;;2.10;98.20;;;;;;2084610;28;20214;-62
2023/03/17 03:22:39;;;;;;;2.90;1.48;;;2.00;98.30;;;;;;2084931;28;20206;-62
2023/03/17 03:23:45;;;;;;;2.30;1.35;;;2.00;98.40;;;;;;2084877;28;20267;-61
2023/03/17 03:24:50;;;;;;;2.95;1.70;;;2.00;98.40;;;;;;2084804;28;20180;-62
2023/03/17 03:25:56;;;;;;;2.03;1.40;;;2.00;98.40;;;;;;2078620;28;20217;-63
2023/03/17 03:27:02;;;;;;;2.10;1.35;;;2.00;98.40;;;;;;2080357;28;20551;-62
2023/03/17 03:28:07;;;;;;;1.30;1.05;;;2.00;98.50;;;;;;2084900;28;20233;-63
2023/03/17 03:29:09;;;;;;;1.90;1.65;;;2.00;98.90;;;;;;2084962;28;20558;-62
2023/03/17 03:30:14;;;;;;;2.90;1.48;;;2.00;98.60;;;;;;2084816;28;20270;-63
2023/03/17 03:31:20;;;;;;;2.33;1.85;;;2.00;98.40;;;;;;2084660;28;20653;-62
2023/03/17 03:32:26;;;;;;;2.58;1.50;;;1.90;98.50;;;;;;2084800;28;20268;-62
2023/03/17 03:33:32;;;;;;;3.00;1.63;;;1.80;98.90;;;;;;2085120;28;20182;-63
2023/03/17 03:34:38;;;;;;;2.50;1.40;;;1.80;99.20;;;;;;2084803;28;20197;-62
2023/03/17 03:35:44;;;;;;;1.65;1.30;;;1.90;99.20;;;;;;2084836;28;20680;-62
2023/03/17 03:36:50;;;;;;;3.65;1.73;;;1.80;99.20;;;;;;2084886;28;20661;-63
2023/03/17 03:37:56;;;;;;;1.80;0.98;;;1.80;99.10;;;;;;2084974;28;20279;-62
2023/03/17 03:39:02;;;;;;;2.33;1.52;;;1.90;99.90;;;;;;2084737;28;20918;-62
2023/03/17 03:40:06;;;;;;;1.30;1.20;;;1.80;99.90;;;;;;2084866;28;20186;-61
2023/03/17 03:41:10;;;;;;;2.95;1.35;;;1.80;99.90;;;;;;2084754;28;20273;-62
2023/03/17 03:42:15;;;;;;;3.20;1.35;;;1.80;99.90;;;;;;2083982;28;20627;-62
2023/03/17 03:43:21;;;;;;;2.10;1.42;;;1.70;99.90;;;;;;2084260;28;20197;-61
2023/03/17 03:44:27;;;;;;;1.80;1.38;;;1.70;99.90;;;;;;2082514;28;20199;-62
2023/03/17 03:45:33;;;;;;;1.95;1.10;;;1.70;99.90;;;;;;2086139;28;20219;-62
2023/03/17 03:46:38;;;;;;;1.73;1.30;;;1.70;99.90;;;;;;2088443;28;20267;-63
2023/03/17 03:47:44;;;;;;;1.20;1.00;;;1.70;99.90;;;;;;2084906;28;20196;-62
2023/03/17 03:48:50;;;;;;;1.13;1.02;;;1.70;99.40;;;;;;2084070;28;20267;-62
2023/03/17 03:49:55;;;;;;;1.35;1.10;;;1.80;99.30;;;;;;2084357;28;20176;-62
2023/03/17 03:51:02;;;;;;;1.40;1.05;;;1.80;99.10;;;;;;2084636;28;20578;-63
2023/03/17 03:52:04;;;;;;;1.70;1.20;;;1.80;99.10;;;;;;2084420;28;20610;-63
2023/03/17 03:53:09;;;;;;;1.67;1.30;;;1.80;99.00;;;;;;2084675;28;20281;-64
2023/03/17 03:54:15;;;;;;;2.00;1.58;;;1.80;99.10;;;;;;2084836;28;20265;-63
2023/03/17 03:55:20;;;;;;;4.15;1.20;;;1.80;99.20;;;;;;2084655;28;20315;-62
2023/03/17 03:56:26;;;;;;;2.15;1.40;;;1.80;99.00;;;;;;2084697;28;20587;-62
2023/03/17 03:57:32;;;;;;;2.65;1.67;;;1.80;99.10;;;;;;2084982;28;20192;-63
2023/03/17 03:58:38;;;;;;;2.58;1.73;;;1.80;99.40;;;;;;2084840;28;20181;-62
2023/03/17 03:59:43;;;;;;;1.98;1.52;;;1.70;99.20;;;;;;2084755;28;20188;-63
2023/03/17 04:00:49;;;;;;;4.22;1.33;;;1.70;99.10;;;;;;2086266;28;20562;-63
2023/03/17 04:01:55;;;;;;;2.58;1.52;;;1.70;99.10;;;;;;2085764;28;20211;-62
2023/03/17 04:03:01;;;;;;;4.90;1.65;;;1.70;99.20;;;;;;2089041;28;20582;-62
2023/03/17 04:04:04;;;;;;;2.03;1.35;;;1.70;99.50;;;;;;2086372;28;20185;-63
2023/03/17 04:05:10;;;;;;;2.42;1.40;;;1.60;99.70;;;;;;2086235;28;20176;-62
2023/03/17 04:06:16;;;;;;;2.65;1.52;;;1.60;99.90;;;;;;2086262;28;20192;-63
2023/03/17 04:07:22;;;;;;;2.08;1.45;;;1.60;99.90;;;;;;2086112;28;20787;-63
2023/03/17 04:08:28;;;;;;;2.25;1.60;;;1.60;99.90;;;;;;2086397;28;20200;-63
2023/03/17 04:09:34;;;;;;;1.50;1.25;;;1.50;99.90;;;;;;2086086;28;20271;-62
2023/03/17 04:10:40;;;;;;;1.35;1.25;;;1.50;99.90;;;;;;2086391;28;20262;-61
2023/03/17 04:11:46;;;;;;;2.45;1.73;;;1.50;99.90;;;;;;2085905;28;20176;-63
2023/03/17 04:12:52;;;;;;;1.52;1.05;;;1.50;99.90;;;;;;2086433;28;20280;-62
2023/03/17 04:13:58;;;;;;;1.10;1.00;;;1.50;99.90;;;;;;2085982;28;20184;-63
2023/03/17 04:15:05;;;;;;;2.35;1.20;;;1.40;99.90;;;;;;2086361;28;20276;-63
2023/03/17 04:16:09;;;;;;;1.58;1.30;;;1.50;99.90;;;;;;2089402;28;20248;-63
2023/03/17 04:17:14;;;;;;;0.90;0.80;;;1.40;99.90;;;;;;2086226;28;20189;-63
2023/03/17 04:18:20;;;;;;;1.17;0.93;;;1.40;99.90;;;;;;2086241;28;20692;-62
2023/03/17 04:19:26;;;;;;;2.78;1.17;;;1.40;99.90;;;;;;2086210;28;20246;-62
2023/03/17 04:20:32;;;;;;;2.35;1.27;;;1.40;99.90;;;;;;2086325;28;20675;-63
2023/03/17 04:21:37;;;;;;;2.47;1.27;;;1.30;99.90;;;;;;2085704;28;20185;-63
2023/03/17 04:22:43;;;;;;;2.60;1.73;;;1.30;99.90;;;;;;2086282;28;20190;-63
2023/03/17 04:23:49;;;;;;;2.92;1.30;;;1.30;99.90;;;;;;2086093;28;20191;-63
2023/03/17 04:24:55;;;;;;;1.73;1.20;;;1.40;99.90;;;;;;2086246;28;20196;-63
2023/03/17 04:26:01;;;;;;;1.75;1.35;;;1.30;99.90;;;;;;2086072;28;20198;-63
2023/03/17 04:27:04;;;;;;;2.80;1.60;;;1.30;99.90;;;;;;2086116;28;20196;-63
2023/03/17 04:28:05;;;;;;;4.13;2.10;;;1.40;99.90;;;;;;2085375;28;20588;-63
2023/03/17 04:29:14;;;;;;;6.93;3.08;;;1.40;99.90;;;;;;2085463;28;20215;-63
2023/03/17 04:30:20;;;;;;;5.85;3.25;;;1.40;99.90;;;;;;2086154;28;20195;-63
2023/03/17 04:31:27;;;;;;;4.50;2.63;;;1.30;99.90;;;;;;2086076;28;20239;-62
2023/03/17 04:32:32;;;;;;;5.47;2.47;;;1.40;99.90;;;;;;2086079;28;20696;-62
2023/03/17 04:33:39;;;;;;;3.92;2.30;;;1.40;99.90;;;;;;2086355;28;20185;-62
2023/03/17 04:34:45;;;;;;;3.10;2.15;;;1.40;99.90;;;;;;2086250;28;20544;-62
2023/03/17 04:35:51;;;;;;;1.88;1.50;;;1.40;99.90;;;;;;2086535;28;20196;-62
2023/03/17 04:36:56;;;;;;;1.52;1.30;;;1.40;99.90;;;;;;2086173;28;20208;-62
2023/03/17 04:38:02;;;;;;;2.63;1.58;;;1.40;99.90;;;;;;2086210;28;20271;-64
2023/03/17 04:39:04;;;;;;;1.50;1.35;;;1.30;99.90;;;;;;2085852;28;20716;-63
2023/03/17 04:40:08;;;;;;;1.17;1.07;;;1.40;99.90;;;;;;2085957;28;20185;-63
2023/03/17 04:41:14;;;;;;;0.90;0.90;;;1.40;99.90;;;;;;2085992;28;20689;-63
2023/03/17 04:42:20;;;;;;;2.00;1.27;;;1.40;99.90;;;;;;2085918;28;20640;-63
2023/03/17 04:43:26;;;;;;;2.55;1.30;;;1.50;99.90;;;;;;2086276;28;20225;-63
2023/03/17 04:44:33;;;;;;;2.08;1.33;;;1.50;99.90;;;;;;2086039;28;20192;-63
2023/03/17 04:45:39;;;;;;;2.55;1.58;;;1.40;99.90;;;;;;2086121;28;20182;-63
2023/03/17 04:46:46;;;;;;;2.38;1.50;;;1.40;99.90;;;;;;2086063;28;20193;-62
2023/03/17 04:47:51;;;;;;;2.13;1.45;;;1.40;99.90;;;;;;2086205;28;20217;-63
2023/03/17 04:48:57;;;;;;;4.28;2.78;;;1.50;99.90;;;;;;2085964;28;20189;-63
2023/03/17 04:50:06;;;;;;;3.55;1.55;;;1.40;99.90;;;;;;2086444;28;20195;-64
2023/03/17 04:51:10;;;;;;;3.88;2.30;;;1.50;99.90;;;;;;2085846;28;20719;-62
2023/03/17 04:52:15;;;;;;;5.72;3.03;;;1.50;99.90;;;;;;2085853;28;20269;-63
2023/03/17 04:53:21;;;;;;;4.45;2.10;;;1.50;99.90;;;;;;2085846;28;20189;-62
2023/03/17 04:54:27;;;;;;;4.78;2.30;;;1.50;99.90;;;;;;2086082;28;20729;-62
2023/03/17 04:55:32;;;;;;;3.45;1.40;;;1.40;99.90;;;;;;2086027;28;20200;-65
2023/03/17 04:56:38;;;;;;;3.65;2.05;;;1.50;99.90;;;;;;2085953;28;20655;-63
2023/03/17 04:57:44;;;;;;;2.92;2.00;;;1.50;99.90;;;;;;2085824;28;20196;-63
2023/03/17 04:58:50;;;;;;;3.72;2.08;;;1.50;99.90;;;;;;2085950;28;20181;-63
2023/03/17 04:59:56;;;;;;;2.90;1.92;;;1.40;99.90;;;;;;2085862;28;20185;-63
2023/03/17 05:01:02;;;;;;;3.33;2.00;;;1.40;99.90;;;;;;2085850;28;20188;-63
2023/03/17 05:02:05;;;;;;;3.83;2.20;;;1.50;99.90;;;;;;2085493;28;20200;-63
2023/03/17 05:03:09;;;;;;;3.47;2.28;;;1.40;99.90;;;;;;2085884;28;20207;-63
2023/03/17 05:04:15;;;;;;;3.10;1.65;;;1.50;99.90;;;;;;2085922;28;20206;-63
2023/03/17 05:05:21;;;;;;;4.00;1.60;;;1.40;99.90;;;;;;2085674;28;20233;-62
2023/03/17 05:06:27;;;;;;;2.40;1.52;;;1.40;99.90;;;;;;2085921;28;20192;-63
2023/03/17 05:07:32;;;;;;;3.33;2.30;;;1.40;99.90;;;;;;2085612;28;20786;-63
2023/03/17 05:08:38;;;;;;;2.90;1.80;;;1.30;99.90;;;;;;2085834;28;20213;-63
2023/03/17 05:09:44;;;;;;;3.30;1.92;;;1.30;99.90;;;;;;2087662;28;20887;-62
2023/03/17 05:10:50;;;;;;;3.55;2.13;;;1.30;99.90;;;;;;2086037;28;20223;-63
2023/03/17 05:11:56;;;;;;;2.33;1.80;;;1.30;99.90;;;;;;2085482;28;20210;-62
2023/03/17 05:13:01;;;;;;;3.13;2.10;;;1.30;99.90;;;;;;2085788;28;20760;-63
2023/03/17 05:14:05;;;;;;;3.45;2.13;;;1.30;99.90;;;;;;2085420;28;20192;-63
2023/03/17 05:15:10;;;;;;;3.35;1.83;;;1.30;99.90;;;;;;2085872;28;20181;-62
2023/03/17 05:16:15;;;;;;;3.00;1.83;;;1.20;99.90;;;;;;2085508;28;20228;-63
2023/03/17 05:17:21;;;;;;;4.07;1.83;;;1.20;99.90;;;;;;2085808;28;20189;-63
2023/03/17 05:18:27;;;;;;;3.15;2.08;;;1.20;99.90;;;;;;2085781;28;20193;-63
2023/03/17 05:19:33;;;;;;;3.20;2.30;;;1.20;99.90;;;;;;2085798;28;20188;-63
2023/03/17 05:20:38;;;;;;;2.65;2.35;;;1.10;99.90;;;;;;2085638;28;20188;-63
2023/03/17 05:21:45;;;;;;;4.28;2.63;;;1.10;99.90;;;;;;2085387;28;20196;-63
2023/03/17 05:22:51;;;;;;;2.50;2.30;;;1.10;99.90;;;;;;2085683;28;20222;-63
2023/03/17 05:23:56;;;;;;;4.50;2.90;;;1.10;99.90;;;;;;2085764;28;20276;-63
2023/03/17 05:25:03;;;;;;;3.00;2.67;;;1.10;99.90;;;;;;2085953;28;20238;-62
2023/03/17 05:26:05;;;;;;;4.10;3.30;;;1.10;99.90;;;;;;2085630;28;20653;-63
2023/03/17 05:27:10;;;;;;;4.75;3.50;;;1.20;99.90;;;;;;2085672;28;20184;-62
2023/03/17 05:28:17;;;;;;;4.47;3.90;;;1.20;99.90;;;;;;2085659;28;20199;-63
2023/03/17 05:29:22;;;;;;;5.25;3.85;;;1.20;99.90;;;;;;2085801;28;20309;-63
2023/03/17 05:30:29;;;;;;;6.63;4.30;;;1.20;99.90;;;;;;2085897;28;20299;-63
2023/03/17 05:31:35;;;;;;;5.60;4.45;;;1.20;99.90;;;;;;2085564;28;20229;-63
2023/03/17 05:32:40;;;;;;;5.50;4.95;;;1.10;99.90;;;;;;2085689;28;20223;-63
2023/03/17 05:33:48;;;;;;;5.47;4.47;;;1.10;99.90;;;;;;2085655;28;20193;-62
2023/03/17 05:34:53;;;;;;;5.05;3.92;;;1.10;99.90;;;;;;2085502;28;20642;-63
2023/03/17 05:36:00;;;;;;;7.20;3.90;;;1.10;99.90;;;;;;2085553;28;20176;-63
2023/03/17 05:37:04;;;;;;;4.70;3.53;;;1.10;99.90;;;;;;2085452;28;20294;-63
2023/03/17 05:38:11;;;;;;;4.35;3.47;;;1.10;99.90;;;;;;2085562;28;20342;-63
2023/03/17 05:39:16;;;;;;;3.05;2.72;;;1.10;99.90;;;;;;2085714;28;20184;-63
2023/03/17 05:40:22;;;;;;;2.70;2.50;;;1.10;99.90;;;;;;2085699;28;20205;-62
2023/03/17 05:41:28;;;;;;;4.60;3.05;;;1.10;99.90;;;;;;2085070;28;20291;-63
2023/03/17 05:42:34;;;;;;;4.32;2.53;;;1.10;99.90;;;;;;2088484;28;20176;-63
2023/03/17 05:43:40;;;;;;;4.40;2.33;;;1.10;99.90;;;;;;2085440;28;20189;-64
2023/03/17 05:44:45;;;;;;;3.72;2.80;;;1.10;99.90;;;;;;2087770;28;20192;-63
2023/03/17 05:45:51;;;;;;;3.78;2.53;;;1.20;99.90;;;;;;2089634;28;20253;-63
2023/03/17 05:46:58;;;;;;;2.42;2.00;;;1.10;99.90;;;;;;2088639;28;20182;-61
2023/03/17 05:48:04;;;;;;;4.75;2.60;;;1.20;99.90;;;;;;2089272;28;20287;-63
2023/03/17 05:49:09;;;;;;;4.10;2.92;;;1.20;99.90;;;;;;2089073;28;20573;-64
2023/03/17 05:50:16;;;;;;;3.00;2.55;;;1.20;99.90;;;;;;2086895;28;20201;-64
2023/03/17 05:51:21;;;;;;;4.20;2.50;;;1.20;99.90;;;;;;2085181;28;20239;-64
2023/03/17 05:52:28;;;;;;;4.05;2.60;;;1.20;99.90;;;;;;2085396;28;20300;-63